createdAt,value
2018-03-12T00:02:23.706Z,48.92
2018-03-12T00:04:49.482Z,49.11
2018-03-12T00:07:15.263Z,49.29
2018-03-12T00:09:41.113Z,49.29
2018-03-12T00:12:07.845Z,49.32
2018-03-12T00:14:33.658Z,49.20
2018-03-12T00:16:59.433Z,49.45
2018-03-12T00:19:26.079Z,49.68
2018-03-12T00:21:51.857Z,49.28
2018-03-12T00:24:18.680Z,49.09
2018-03-12T00:26:44.460Z,49.09
2018-03-12T00:29:11.214Z,49.07
2018-03-12T00:31:37.981Z,49.05
2018-03-12T00:34:03.811Z,49.40
2018-03-12T00:36:30.393Z,49.17
2018-03-12T00:38:56.166Z,49.33
2018-03-12T00:41:21.948Z,48.92
2018-03-12T00:43:47.726Z,49.33
2018-03-12T00:46:14.505Z,48.91
2018-03-12T00:48:40.317Z,48.86
2018-03-12T00:51:06.917Z,48.94
2018-03-12T00:53:32.690Z,48.94
2018-03-12T00:55:59.438Z,49.33
2018-03-12T00:58:26.183Z,48.95
2018-03-12T01:00:51.964Z,49.23
2018-03-12T01:03:18.575Z,49.18
2018-03-12T01:05:44.358Z,49.26
2018-03-12T01:08:11.018Z,49.44
2018-03-12T01:10:37.395Z,49.29
2018-03-12T01:13:04.189Z,49.39
2018-03-12T01:15:29.971Z,49.13
2018-03-12T01:17:56.751Z,48.83
2018-03-12T01:20:23.466Z,48.73
2018-03-12T01:22:49.582Z,48.49
2018-03-12T01:25:15.353Z,48.57
2018-03-12T01:27:42.145Z,48.85
2018-03-12T01:30:07.917Z,49.22
2018-03-12T01:32:33.703Z,49.27
2018-03-12T01:35:00.315Z,49.33
2018-03-12T01:37:26.092Z,49.29
2018-03-12T01:39:51.901Z,49.11
2018-03-12T01:42:17.681Z,48.91
2018-03-12T01:44:43.503Z,48.89
2018-03-12T01:47:10.276Z,48.85
2018-03-12T01:49:36.053Z,48.66
2018-03-12T01:52:02.673Z,48.65
2018-03-12T01:54:29.442Z,49.01
2018-03-12T01:56:55.221Z,48.75
2018-03-12T01:59:21.001Z,48.83
2018-03-12T02:01:47.622Z,49.07
2018-03-12T02:04:13.409Z,48.99
2018-03-12T02:06:39.189Z,48.84
2018-03-12T02:09:04.962Z,49.08
2018-03-12T02:11:31.558Z,48.57
2018-03-12T02:13:57.335Z,49.00
2018-03-12T02:16:23.114Z,49.18
2018-03-12T02:18:48.907Z,48.80
2018-03-12T02:21:14.763Z,49.24
2018-03-12T02:23:40.543Z,48.74
2018-03-12T02:26:06.345Z,49.20
2018-03-12T02:28:32.125Z,48.48
2018-03-12T02:30:57.907Z,48.34
2018-03-12T02:33:23.729Z,48.31
2018-03-12T02:35:49.522Z,48.72
2018-03-12T02:38:15.347Z,48.16
2018-03-12T02:40:41.136Z,47.97
2018-03-12T02:43:07.932Z,48.31
2018-03-12T02:45:33.718Z,48.82
2018-03-12T02:47:59.506Z,48.94
2018-03-12T02:50:25.284Z,48.43
2018-03-12T02:52:51.076Z,48.62
2018-03-12T02:55:16.855Z,49.08
2018-03-12T02:57:42.646Z,49.33
2018-03-12T03:00:08.435Z,49.11
2018-03-12T03:02:34.214Z,49.42
2018-03-12T03:04:59.999Z,48.98
2018-03-12T03:07:25.802Z,48.22
2018-03-12T03:09:51.578Z,48.44
2018-03-12T03:12:17.357Z,48.16
2018-03-12T03:14:43.144Z,48.34
2018-03-12T03:17:09.000Z,49.00
2018-03-12T03:19:34.775Z,49.22
2018-03-12T03:22:00.625Z,49.09
2018-03-12T03:24:26.429Z,49.07
2018-03-12T03:26:52.279Z,48.75
2018-03-12T03:29:18.064Z,48.49
2018-03-12T03:31:43.917Z,48.85
2018-03-12T03:34:09.713Z,48.99
2018-03-12T03:36:35.540Z,49.18
2018-03-12T03:39:01.363Z,48.92
2018-03-12T03:41:27.145Z,48.93
2018-03-12T03:43:52.966Z,48.90
2018-03-12T03:46:18.748Z,48.67
2018-03-12T03:48:44.572Z,48.81
2018-03-12T03:51:10.382Z,48.94
2018-03-12T03:53:36.198Z,49.24
2018-03-12T03:56:01.982Z,49.04
2018-03-12T03:58:28.686Z,48.84
2018-03-12T04:00:54.466Z,48.66
2018-03-12T04:03:20.294Z,48.47
2018-03-12T04:05:46.093Z,48.90
2018-03-12T04:08:11.938Z,48.83
2018-03-12T04:10:37.778Z,48.82
2018-03-12T04:13:03.598Z,48.86
2018-03-12T04:15:29.392Z,48.94
2018-03-12T04:17:55.206Z,48.84
2018-03-12T04:20:20.985Z,48.82
2018-03-12T04:22:46.771Z,48.68
2018-03-12T04:25:12.630Z,48.85
2018-03-12T04:27:38.446Z,48.72
2018-03-12T04:30:04.225Z,48.72
2018-03-12T04:32:30.013Z,48.87
2018-03-12T04:34:55.798Z,48.66
2018-03-12T04:37:21.579Z,48.09
2018-03-12T04:39:47.402Z,48.14
2018-03-12T04:42:13.189Z,48.07
2018-03-12T04:44:39.009Z,48.73
2018-03-12T04:47:04.793Z,49.15
2018-03-12T04:49:30.614Z,48.99
2018-03-12T04:51:56.392Z,48.68
2018-03-12T04:54:22.214Z,48.84
2018-03-12T04:56:48.003Z,48.54
2018-03-12T04:59:13.783Z,48.87
2018-03-12T05:01:39.601Z,48.65
2018-03-12T05:04:05.387Z,48.86
2018-03-12T05:06:31.205Z,48.70
2018-03-12T05:08:56.981Z,48.55
2018-03-12T05:11:22.806Z,48.46
2018-03-12T05:13:48.586Z,49.04
2018-03-12T05:16:14.407Z,48.58
2018-03-12T05:18:40.194Z,48.59
2018-03-12T05:21:06.009Z,48.62
2018-03-12T05:23:31.831Z,48.38
2018-03-12T05:25:57.650Z,49.03
2018-03-12T05:28:23.442Z,48.66
2018-03-12T05:30:49.262Z,48.61
2018-03-12T05:33:15.050Z,48.52
2018-03-12T05:35:40.901Z,48.32
2018-03-12T05:38:06.682Z,48.44
2018-03-12T05:40:32.465Z,48.24
2018-03-12T05:42:58.245Z,48.45
2018-03-12T05:45:24.026Z,48.39
2018-03-12T05:47:49.817Z,48.47
2018-03-12T05:50:15.604Z,48.37
2018-03-12T05:52:41.386Z,48.07
2018-03-12T05:55:07.170Z,47.83
2018-03-12T05:57:32.996Z,48.04
2018-03-12T05:59:58.781Z,48.00
2018-03-12T06:02:24.622Z,48.17
2018-03-12T06:04:50.402Z,48.02
2018-03-12T06:07:16.177Z,48.14
2018-03-12T06:09:41.958Z,48.53
2018-03-12T06:12:07.730Z,48.52
2018-03-12T06:14:33.504Z,48.50
2018-03-12T06:16:59.287Z,48.31
2018-03-12T06:19:25.101Z,48.35
2018-03-12T06:21:50.914Z,48.44
2018-03-12T06:24:16.703Z,48.40
2018-03-12T06:26:42.486Z,48.60
2018-03-12T06:29:08.274Z,48.47
2018-03-12T06:31:34.094Z,48.18
2018-03-12T06:33:59.886Z,48.33
2018-03-12T06:36:25.721Z,48.25
2018-03-12T06:38:51.510Z,48.56
2018-03-12T06:41:17.325Z,48.48
2018-03-12T06:43:43.106Z,48.21
2018-03-12T06:46:08.886Z,48.07
2018-03-12T06:48:34.668Z,48.26
2018-03-12T06:51:00.449Z,48.38
2018-03-12T06:53:26.225Z,48.26
2018-03-12T06:55:52.011Z,48.07
2018-03-12T06:58:17.792Z,47.83
2018-03-12T07:00:43.577Z,47.64
2018-03-12T07:03:09.366Z,47.62
2018-03-12T07:05:35.165Z,48.07
2018-03-12T07:08:00.945Z,47.83
2018-03-12T07:10:26.739Z,48.08
2018-03-12T07:12:52.593Z,47.77
2018-03-12T07:15:18.373Z,47.91
2018-03-12T07:17:44.186Z,47.94
2018-03-12T07:20:09.961Z,47.68
2018-03-12T07:22:36.086Z,47.66
2018-03-12T07:25:01.869Z,47.83
2018-03-12T07:27:27.729Z,47.96
2018-03-12T07:29:53.510Z,47.85
2018-03-12T07:32:19.286Z,47.97
2018-03-12T07:34:45.061Z,48.25
2018-03-12T07:37:10.842Z,47.73
2018-03-12T07:39:36.621Z,47.69
2018-03-12T07:42:02.490Z,48.02
2018-03-12T07:44:28.275Z,47.95
2018-03-12T07:46:54.060Z,47.88
2018-03-12T07:49:19.885Z,47.92
2018-03-12T07:51:45.706Z,47.85
2018-03-12T07:54:11.568Z,48.30
2018-03-12T07:56:37.375Z,48.18
2018-03-12T07:59:03.158Z,48.31
2018-03-12T08:01:28.943Z,48.43
2018-03-12T08:03:54.737Z,48.17
2018-03-12T08:06:20.516Z,48.60
2018-03-12T08:08:46.294Z,48.51
2018-03-12T08:11:12.171Z,48.30
2018-03-12T08:13:37.994Z,48.07
2018-03-12T08:16:03.777Z,48.51
2018-03-12T08:18:29.586Z,48.31
2018-03-12T08:20:55.402Z,48.29
2018-03-12T08:23:21.187Z,48.05
2018-03-12T08:25:47.001Z,48.76
2018-03-12T08:28:12.794Z,48.98
2018-03-12T08:30:38.573Z,49.00
2018-03-12T08:33:04.439Z,48.59
2018-03-12T08:35:30.245Z,48.70
2018-03-12T08:37:56.030Z,48.55
2018-03-12T08:40:21.846Z,48.61
2018-03-12T08:42:47.631Z,48.88
2018-03-12T08:45:13.455Z,48.75
2018-03-12T08:47:39.233Z,48.90
2018-03-12T08:50:05.006Z,48.95
2018-03-12T08:52:30.794Z,48.32
2018-03-12T08:54:56.564Z,48.91
2018-03-12T08:57:22.357Z,48.85
2018-03-12T08:59:48.186Z,48.79
2018-03-12T09:02:13.994Z,48.65
2018-03-12T09:04:39.778Z,48.66
2018-03-12T09:07:05.594Z,48.69
2018-03-12T09:09:31.383Z,48.24
2018-03-12T09:11:58.234Z,48.36
2018-03-12T09:14:24.022Z,48.80
2018-03-12T09:16:49.798Z,48.86
2018-03-12T09:19:15.578Z,48.65
2018-03-12T09:21:41.362Z,48.73
2018-03-12T09:24:07.180Z,49.02
2018-03-12T09:26:32.961Z,48.60
2018-03-12T09:28:58.766Z,48.81
2018-03-12T09:31:24.578Z,49.16
2018-03-12T09:33:50.369Z,48.92
2018-03-12T09:36:16.221Z,49.00
2018-03-12T09:38:41.998Z,49.36
2018-03-12T09:41:08.330Z,49.40
2018-03-12T09:43:34.107Z,49.28
2018-03-12T09:45:59.885Z,49.23
2018-03-12T09:48:25.664Z,49.35
2018-03-12T09:50:51.446Z,49.68
2018-03-12T09:53:17.226Z,49.24
2018-03-12T09:55:43.013Z,49.15
2018-03-12T09:58:08.795Z,49.63
2018-03-12T10:00:34.578Z,50.04
2018-03-12T10:03:01.266Z,49.40
2018-03-12T10:05:27.050Z,49.63
2018-03-12T10:07:52.878Z,49.64
2018-03-12T10:10:18.658Z,49.76
2018-03-12T10:12:44.438Z,50.02
2018-03-12T10:15:10.212Z,49.98
2018-03-12T10:17:35.996Z,49.61
2018-03-12T10:20:01.777Z,49.84
2018-03-12T10:22:27.562Z,49.79
2018-03-12T10:24:53.338Z,50.01
2018-03-12T10:27:19.114Z,49.78
2018-03-12T10:29:44.894Z,49.71
2018-03-12T10:32:11.720Z,50.02
2018-03-12T10:34:37.534Z,49.97
2018-03-12T10:37:03.325Z,49.92
2018-03-12T10:39:29.117Z,49.68
2018-03-12T10:41:54.898Z,50.10
2018-03-12T10:44:20.683Z,49.96
2018-03-12T10:46:46.482Z,49.82
2018-03-12T10:49:12.259Z,50.06
2018-03-12T10:51:38.034Z,50.31
2018-03-12T10:54:03.819Z,50.31
2018-03-12T10:56:29.608Z,50.02
2018-03-12T10:58:55.381Z,49.81
2018-03-12T11:01:22.169Z,50.39
2018-03-12T11:03:47.976Z,50.69
2018-03-12T11:09:14.915Z,50.57
2018-03-12T11:11:40.689Z,50.16
2018-03-12T11:14:06.467Z,49.99
2018-03-12T11:16:32.276Z,49.96
2018-03-12T11:18:58.075Z,49.64
2018-03-12T11:21:23.865Z,49.84
2018-03-12T11:23:49.651Z,49.76
2018-03-12T11:26:15.435Z,49.87
2018-03-12T11:28:41.272Z,49.94
2018-03-12T11:31:07.063Z,50.07
2018-03-12T11:33:32.890Z,49.81
2018-03-12T11:35:58.688Z,49.95
2018-03-12T11:38:24.471Z,49.80
2018-03-12T11:40:50.302Z,50.15
2018-03-12T11:43:16.058Z,49.94
2018-03-12T11:45:41.830Z,50.12
2018-03-12T11:48:07.625Z,50.13
2018-03-12T11:50:33.409Z,50.24
2018-03-12T11:52:59.195Z,50.35
2018-03-12T11:55:24.969Z,50.17
2018-03-12T11:57:50.748Z,50.73
2018-03-12T12:00:16.567Z,50.16
2018-03-12T12:02:42.342Z,50.25
2018-03-12T12:05:08.157Z,50.23
2018-03-12T12:07:33.941Z,50.72
2018-03-12T12:09:59.767Z,50.52
2018-03-12T12:12:25.550Z,50.40
2018-03-12T12:14:51.325Z,50.52
2018-03-12T12:17:17.105Z,50.73
2018-03-12T12:19:42.882Z,50.74
2018-03-12T12:22:08.690Z,50.63
2018-03-12T12:24:34.510Z,50.61
2018-03-12T12:27:00.330Z,50.78
2018-03-12T12:29:26.118Z,50.77
2018-03-12T12:31:51.902Z,50.82
2018-03-12T12:34:17.714Z,50.73
2018-03-12T12:36:43.498Z,50.57
2018-03-12T12:39:09.278Z,50.66
2018-03-12T12:41:35.058Z,50.64
2018-03-12T12:44:00.829Z,50.85
2018-03-12T12:46:26.606Z,50.72
2018-03-12T12:48:52.379Z,50.97
2018-03-12T12:51:18.155Z,50.63
2018-03-12T12:53:51.082Z,50.76
2018-03-12T12:56:16.864Z,50.97
2018-03-12T12:58:42.674Z,51.46
2018-03-12T13:01:08.454Z,50.66
2018-03-12T13:03:34.270Z,50.80
2018-03-12T13:06:00.054Z,50.82
2018-03-12T13:08:25.837Z,51.25
2018-03-12T13:10:51.616Z,50.92
2018-03-12T13:13:17.389Z,50.88
2018-03-12T13:15:43.203Z,51.00
2018-03-12T13:18:08.989Z,50.83
2018-03-12T13:20:34.801Z,51.03
2018-03-12T13:23:00.578Z,51.21
2018-03-12T13:25:26.394Z,51.03
2018-03-12T13:27:52.183Z,50.98
2018-03-12T13:30:17.966Z,51.17
2018-03-12T13:32:43.781Z,51.38
2018-03-12T13:35:09.562Z,51.28
2018-03-12T13:37:35.387Z,51.02
2018-03-12T13:40:01.162Z,51.07
2018-03-12T13:42:26.947Z,50.80
2018-03-12T13:44:52.747Z,50.65
2018-03-12T13:47:18.521Z,50.98
2018-03-12T13:49:44.302Z,50.67
2018-03-12T13:52:10.081Z,50.93
2018-03-12T13:54:35.859Z,51.02
2018-03-12T13:57:01.649Z,50.92
2018-03-12T13:59:27.422Z,50.88
2018-03-12T14:01:53.209Z,51.11
2018-03-12T14:04:18.998Z,51.06
2018-03-12T14:06:44.774Z,51.11
2018-03-12T14:09:10.586Z,51.19
2018-03-12T14:11:36.410Z,51.22
2018-03-12T14:14:02.190Z,51.14
2018-03-12T14:16:28.008Z,51.11
2018-03-12T14:18:53.794Z,50.85
2018-03-12T14:21:19.582Z,51.52
2018-03-12T14:23:45.359Z,51.34
2018-03-12T14:26:11.141Z,51.52
2018-03-12T14:28:36.918Z,51.42
2018-03-12T14:31:02.697Z,51.58
2018-03-12T14:33:28.522Z,51.45
2018-03-12T14:35:54.298Z,51.66
2018-03-12T14:38:20.078Z,51.41
2018-03-12T14:40:46.835Z,51.72
2018-03-12T14:43:12.614Z,51.54
2018-03-12T14:45:38.384Z,51.58
2018-03-12T14:48:04.161Z,51.59
2018-03-12T14:50:29.981Z,51.96
2018-03-12T14:52:55.757Z,51.64
2018-03-12T14:55:21.534Z,51.91
2018-03-12T14:57:47.317Z,51.81
2018-03-12T15:00:13.135Z,51.78
2018-03-12T15:02:38.918Z,51.99
2018-03-12T15:05:04.699Z,51.66
2018-03-12T15:07:30.481Z,51.70
2018-03-12T15:09:56.262Z,52.14
2018-03-12T15:12:22.046Z,51.93
2018-03-12T15:14:47.826Z,51.57
2018-03-12T15:17:13.600Z,51.79
2018-03-12T15:19:39.381Z,52.08
2018-03-12T15:22:05.161Z,52.15
2018-03-12T15:24:30.960Z,52.17
2018-03-12T15:26:56.738Z,52.22
2018-03-12T15:29:22.519Z,52.05
2018-03-12T15:31:48.301Z,51.99
2018-03-12T15:34:14.074Z,52.11
2018-03-12T15:36:39.855Z,51.99
2018-03-12T15:39:05.634Z,52.04
2018-03-12T15:41:31.419Z,52.06
2018-03-12T15:43:57.197Z,52.04
2018-03-12T15:46:23.022Z,52.33
2018-03-12T15:48:48.806Z,52.21
2018-03-12T15:51:14.582Z,51.96
2018-03-12T15:53:40.372Z,52.51
2018-03-12T15:56:06.150Z,52.34
2018-03-12T15:58:31.926Z,52.20
2018-03-12T16:00:57.703Z,52.04
2018-03-12T16:03:23.486Z,52.36
2018-03-12T16:05:49.266Z,52.47
2018-03-12T16:08:15.078Z,52.45
2018-03-12T16:10:40.893Z,52.33
2018-03-12T16:13:06.687Z,52.12
2018-03-12T16:15:32.506Z,51.99
2018-03-12T16:17:58.321Z,51.85
2018-03-12T16:20:24.110Z,52.21
2018-03-12T16:22:49.926Z,52.07
2018-03-12T16:25:15.739Z,52.10
2018-03-12T16:27:41.509Z,52.03
2018-03-12T16:30:07.292Z,52.25
2018-03-12T16:32:34.105Z,52.16
2018-03-12T16:34:59.890Z,52.42
2018-03-12T16:37:25.745Z,52.08
2018-03-12T16:39:51.555Z,52.46
2018-03-12T16:42:17.332Z,52.31
2018-03-12T16:44:43.116Z,52.02
2018-03-12T16:47:08.899Z,52.14
2018-03-12T16:49:34.682Z,52.26
2018-03-12T16:52:00.472Z,52.15
2018-03-12T16:54:26.294Z,52.32
2018-03-12T16:56:52.069Z,52.41
2018-03-12T16:59:17.847Z,52.24
2018-03-12T17:01:43.625Z,52.38
2018-03-12T17:04:09.407Z,52.12
2018-03-12T17:06:35.196Z,52.62
2018-03-12T17:09:00.990Z,52.79
2018-03-12T17:11:27.788Z,52.51
2018-03-12T17:13:53.570Z,52.51
2018-03-12T17:16:19.350Z,52.56
2018-03-12T17:18:45.130Z,52.40
2018-03-12T17:21:10.911Z,52.33
2018-03-12T17:23:36.686Z,52.42
2018-03-12T17:26:02.510Z,52.36
2018-03-12T17:28:28.297Z,52.58
2018-03-12T17:30:54.118Z,53.03
2018-03-12T17:33:19.934Z,53.25
2018-03-12T17:35:45.726Z,53.10
2018-03-12T17:38:11.506Z,53.06
2018-03-12T17:40:37.299Z,52.86
2018-03-12T17:43:03.082Z,52.68
2018-03-12T17:45:28.874Z,53.16
2018-03-12T17:47:54.692Z,53.19
2018-03-12T17:50:20.509Z,52.94
2018-03-12T17:52:46.298Z,52.82
2018-03-12T17:55:12.129Z,52.42
2018-03-12T17:57:37.945Z,52.18
2018-03-12T18:02:54.996Z,52.18
2018-03-12T18:05:22.111Z,52.59
2018-03-12T18:07:48.205Z,52.45
2018-03-12T18:10:14.159Z,52.52
2018-03-12T18:12:40.130Z,52.53
2018-03-12T18:15:09.332Z,52.54
2018-03-12T18:17:35.323Z,52.94
2018-03-12T18:20:01.344Z,53.08
2018-03-12T18:22:27.286Z,52.80
2018-03-12T18:24:53.243Z,52.79
2018-03-12T18:27:22.010Z,52.83
2018-03-12T18:29:52.714Z,52.73
2018-03-12T18:32:25.373Z,52.88
2018-03-12T18:34:59.081Z,53.00
2018-03-12T18:37:33.631Z,52.85
2018-03-12T18:39:59.908Z,53.17
2018-03-12T18:42:25.996Z,52.92
2018-03-12T18:44:51.993Z,52.99
2018-03-12T18:47:21.144Z,53.04
2018-03-12T18:49:49.269Z,52.94
2018-03-12T18:52:15.771Z,52.94
2018-03-12T18:54:43.898Z,52.67
2018-03-12T18:57:15.693Z,52.87
2018-03-12T18:59:43.937Z,52.94
2018-03-12T19:02:15.205Z,52.90
2018-03-12T19:04:41.826Z,53.49
2018-03-12T19:07:07.831Z,53.23
2018-03-12T19:09:35.287Z,52.93
2018-03-12T19:12:09.031Z,53.32
2018-03-12T19:14:37.072Z,53.52
2018-03-12T19:17:06.697Z,53.48
2018-03-12T19:19:33.162Z,53.33
2018-03-12T19:22:00.012Z,53.47
2018-03-12T19:24:30.129Z,53.28
2018-03-12T19:26:56.340Z,53.41
2018-03-12T19:29:24.244Z,53.29
2018-03-12T19:31:50.045Z,53.27
2018-03-12T19:34:19.273Z,53.33
2018-03-12T19:36:45.061Z,53.65
2018-03-12T19:39:10.842Z,53.63
2018-03-12T19:41:36.637Z,53.42
2018-03-12T19:44:02.459Z,53.50
2018-03-12T19:46:28.238Z,53.38
2018-03-12T19:48:54.065Z,53.55
2018-03-12T19:51:19.856Z,53.57
2018-03-12T19:53:45.647Z,53.79
2018-03-12T19:56:11.433Z,53.47
2018-03-12T19:58:37.222Z,52.84
2018-03-12T20:01:03.017Z,52.50
2018-03-12T20:03:28.810Z,52.44
2018-03-12T20:05:54.598Z,52.67
2018-03-12T20:08:20.405Z,52.49
2018-03-12T20:10:53.736Z,53.00
2018-03-12T20:13:21.256Z,52.96
2018-03-12T20:15:47.111Z,53.18
2018-03-12T20:18:12.991Z,53.03
2018-03-12T20:20:38.770Z,53.06
2018-03-12T20:23:04.656Z,53.47
2018-03-12T20:25:30.547Z,53.12
2018-03-12T20:27:56.338Z,53.17
2018-03-12T20:30:22.204Z,53.19
2018-03-12T20:32:48.049Z,53.15
2018-03-12T20:35:13.860Z,53.20
2018-03-12T20:37:39.652Z,53.29
2018-03-12T20:40:05.497Z,53.00
2018-03-12T20:42:31.297Z,53.22
2018-03-12T20:44:57.135Z,53.15
2018-03-12T20:47:22.986Z,53.19
2018-03-12T20:49:48.786Z,53.28
2018-03-12T20:52:14.583Z,53.35
2018-03-12T20:54:40.422Z,53.27
2018-03-12T20:57:06.217Z,53.08
2018-03-12T20:59:32.075Z,53.40
2018-03-12T21:01:57.866Z,53.25
2018-03-12T21:04:23.722Z,53.41
2018-03-12T21:06:49.593Z,53.36
2018-03-12T21:09:15.398Z,53.33
2018-03-12T21:11:41.180Z,53.33
2018-03-12T21:14:06.994Z,53.38
2018-03-12T21:16:32.894Z,53.42
2018-03-12T21:18:58.838Z,53.38
2018-03-12T21:21:24.653Z,53.51
2018-03-12T21:23:50.458Z,53.44
2018-03-12T21:26:16.279Z,53.20
2018-03-12T21:28:42.103Z,53.33
2018-03-12T21:31:07.954Z,53.21
2018-03-12T21:33:33.817Z,53.33
2018-03-12T21:35:59.645Z,53.46
2018-03-12T21:38:25.438Z,53.53
2018-03-12T21:40:51.237Z,53.38
2018-03-12T21:43:17.076Z,53.67
2018-03-12T21:45:42.902Z,53.53
2018-03-12T21:48:08.794Z,53.46
2018-03-12T21:50:34.570Z,53.29
2018-03-12T21:53:00.350Z,53.48
2018-03-12T21:55:26.125Z,53.32
2018-03-12T21:57:51.998Z,53.35
2018-03-12T22:00:17.786Z,53.44
2018-03-12T22:02:43.578Z,53.48
2018-03-12T22:05:09.353Z,53.25
2018-03-12T22:07:35.126Z,53.64
2018-03-12T22:10:00.902Z,53.50
2018-03-12T22:12:26.680Z,53.25
2018-03-12T22:14:52.462Z,53.41
2018-03-12T22:17:18.242Z,53.11
2018-03-12T22:19:44.025Z,53.33
2018-03-12T22:22:09.825Z,53.31
2018-03-12T22:24:35.615Z,53.41
2018-03-12T22:27:02.187Z,53.45
2018-03-12T22:29:27.985Z,53.48
2018-03-12T22:31:53.818Z,53.69
2018-03-12T22:34:19.702Z,53.43
2018-03-12T22:36:45.519Z,53.42
2018-03-12T22:39:11.345Z,53.47
2018-03-12T22:41:37.134Z,53.64
2018-03-12T22:44:02.914Z,53.69
2018-03-12T22:46:28.798Z,53.46
2018-03-12T22:48:54.576Z,53.66
2018-03-12T22:51:20.358Z,53.17
2018-03-12T22:53:46.171Z,52.93
2018-03-12T22:56:11.951Z,52.88
2018-03-12T22:58:37.757Z,52.73
2018-03-12T23:01:03.618Z,52.26
2018-03-12T23:03:29.389Z,52.50
2018-03-12T23:05:55.169Z,52.29
2018-03-12T23:08:20.973Z,52.49
2018-03-12T23:10:46.795Z,52.57
2018-03-12T23:13:13.381Z,52.60
2018-03-12T23:15:39.298Z,52.72
2018-03-12T23:18:05.073Z,52.80
2018-03-12T23:20:30.856Z,52.82
2018-03-12T23:22:56.642Z,52.94
2018-03-12T23:25:22.509Z,53.13
2018-03-12T23:27:48.289Z,52.69
2018-03-12T23:30:14.073Z,52.78
2018-03-12T23:32:39.854Z,52.69
2018-03-12T23:35:05.633Z,52.87
2018-03-12T23:37:31.420Z,52.88
2018-03-12T23:39:57.193Z,52.91
2018-03-12T23:42:23.013Z,53.11
2018-03-12T23:44:48.802Z,52.96
2018-03-12T23:47:14.620Z,53.19
2018-03-12T23:49:40.404Z,53.11
2018-03-12T23:52:06.190Z,53.11
2018-03-12T23:54:38.146Z,53.12
2018-03-12T23:57:03.925Z,52.91
2018-03-12T23:59:29.707Z,52.99
